createdAt,value
2022-10-23T00:01:43.857Z,101114.28
2022-10-23T00:04:21.571Z,101112.41
2022-10-23T00:06:49.519Z,101104.53
2022-10-23T00:09:20.244Z,101104.31
2022-10-23T00:11:50.039Z,101115.06
2022-10-23T00:14:21.444Z,101111.41
2022-10-23T00:16:48.552Z,101099.69
2022-10-23T00:19:16.224Z,101105.47
2022-10-23T00:21:43.480Z,101107.50
2022-10-23T00:24:10.716Z,101113.63
2022-10-23T00:26:40.569Z,101116.94
2022-10-23T00:29:09.815Z,101118.38
2022-10-23T00:31:38.105Z,101120.00
2022-10-23T00:34:08.492Z,101115.69
2022-10-23T00:36:36.979Z,101114.09
2022-10-23T00:39:05.692Z,101110.41
2022-10-23T00:41:32.992Z,101114.88
2022-10-23T00:44:30.832Z,101114.28
2022-10-23T00:46:59.299Z,101117.13
2022-10-23T00:49:28.351Z,101114.06
2022-10-23T00:52:04.584Z,101112.66
2022-10-23T00:54:43.560Z,101114.50
2022-10-23T00:57:15.581Z,101111.00
2022-10-23T00:59:42.968Z,101100.94
2022-10-23T01:02:10.513Z,101099.31
2022-10-23T01:04:38.123Z,101101.19
2022-10-23T01:07:30.736Z,101100.31
2022-10-23T01:10:07.909Z,101097.25
2022-10-23T01:13:21.070Z,101100.47
2022-10-23T01:16:06.065Z,101102.53
2022-10-23T01:18:53.560Z,101099.50
2022-10-23T01:21:48.110Z,101099.28
2022-10-23T01:24:34.072Z,101090.66
2022-10-23T01:27:13.167Z,101086.06
2022-10-23T01:30:13.733Z,101088.06
2022-10-23T01:33:06.923Z,101088.91
2022-10-23T01:35:45.973Z,101091.66
2022-10-23T01:38:57.655Z,101092.59
2022-10-23T01:41:50.527Z,101092.47
2022-10-23T01:44:37.967Z,101095.59
2022-10-23T01:47:08.947Z,101093.09
2022-10-23T01:49:39.578Z,101092.91
2022-10-23T01:52:11.935Z,101092.72
2022-10-23T01:54:44.137Z,101087.75
2022-10-23T01:57:14.549Z,101080.38
2022-10-23T02:00:07.031Z,101086.16
2022-10-23T02:02:36.365Z,101084.28
2022-10-23T02:05:14.190Z,101079.34
2022-10-23T02:07:41.767Z,101085.75
2022-10-23T02:10:10.696Z,101079.09
2022-10-23T02:13:03.555Z,101086.75
2022-10-23T02:15:41.049Z,101088.75
2022-10-23T02:18:26.723Z,101094.72
2022-10-23T02:21:14.029Z,101102.16
2022-10-23T02:23:59.549Z,101102.34
2022-10-23T02:26:47.057Z,101100.31
2022-10-23T02:29:38.987Z,101104.63
2022-10-23T02:32:09.937Z,101113.66
2022-10-23T02:34:37.373Z,101117.38
2022-10-23T02:37:04.620Z,101109.78
2022-10-23T02:39:31.859Z,101106.31
2022-10-23T02:42:36.433Z,101113.50
2022-10-23T02:45:15.885Z,101104.41
2022-10-23T02:48:19.067Z,101105.25
2022-10-23T02:51:24.443Z,101108.53
2022-10-23T02:54:05.475Z,101112.03
2022-10-23T02:56:41.378Z,101106.31
2022-10-23T02:59:52.574Z,101110.41
2022-10-23T03:04:58.806Z,101112.47
2022-10-23T03:07:27.134Z,101110.59
2022-10-23T03:09:54.197Z,101109.75
2022-10-23T03:12:21.287Z,101112.44
2022-10-23T03:14:48.327Z,101111.00
2022-10-23T03:17:15.449Z,101106.72
2022-10-23T03:19:44.641Z,101098.06
2022-10-23T03:22:11.698Z,101097.88
2022-10-23T03:24:38.753Z,101109.50
2022-10-23T03:27:08.225Z,101103.97
2022-10-23T03:29:38.239Z,101114.50
2022-10-23T03:32:05.640Z,101111.22
2022-10-23T03:34:32.845Z,101113.25
2022-10-23T03:36:59.893Z,101117.19
2022-10-23T03:39:27.021Z,101123.53
2022-10-23T03:41:54.100Z,101127.00
2022-10-23T03:44:21.170Z,101129.25
2022-10-23T03:46:48.286Z,101131.31
2022-10-23T03:49:15.476Z,101138.72
2022-10-23T03:51:44.061Z,101127.84
2022-10-23T03:54:11.446Z,101132.56
2022-10-23T03:56:38.478Z,101125.19
2022-10-23T03:59:05.521Z,101129.25
2022-10-23T04:01:32.977Z,101138.72
2022-10-23T04:04:00.291Z,101143.44
2022-10-23T04:06:27.348Z,101140.78
2022-10-23T04:08:54.682Z,101132.16
2022-10-23T04:11:21.743Z,101133.78
2022-10-23T04:13:48.853Z,101129.91
2022-10-23T04:16:17.202Z,101132.16
2022-10-23T04:18:44.290Z,101131.72
2022-10-23T04:21:12.041Z,101133.41
2022-10-23T04:23:41.942Z,101135.84
2022-10-23T04:26:11.910Z,101129.06
2022-10-23T04:28:39.080Z,101126.59
2022-10-23T04:31:07.141Z,101117.38
2022-10-23T04:33:34.342Z,101111.44
2022-10-23T04:36:04.052Z,101121.66
2022-10-23T04:38:31.123Z,101134.19
2022-10-23T04:40:58.204Z,101136.88
2022-10-23T04:43:25.267Z,101138.50
2022-10-23T04:45:52.432Z,101131.09
2022-10-23T04:48:19.846Z,101137.88
2022-10-23T04:50:59.353Z,101146.31
2022-10-23T04:53:28.097Z,101146.31
2022-10-23T04:55:57.742Z,101145.69
2022-10-23T04:58:26.967Z,101145.88
2022-10-23T05:00:54.384Z,101153.06
2022-10-23T05:03:22.948Z,101145.91
2022-10-23T05:05:54.542Z,101141.78
2022-10-23T05:08:24.812Z,101147.53
2022-10-23T05:10:52.059Z,101146.31
2022-10-23T05:13:22.333Z,101158.00
2022-10-23T05:15:51.975Z,101163.13
2022-10-23T05:18:28.885Z,101156.16
2022-10-23T05:21:10.261Z,101155.56
2022-10-23T05:23:38.663Z,101160.88
2022-10-23T05:26:05.774Z,101155.94
2022-10-23T05:28:32.785Z,101145.66
2022-10-23T05:31:03.782Z,101151.03
2022-10-23T05:33:31.839Z,101156.19
2022-10-23T05:36:00.362Z,101150.81
2022-10-23T05:38:29.640Z,101153.91
2022-10-23T05:40:56.687Z,101148.97
2022-10-23T05:43:23.872Z,101142.78
2022-10-23T05:45:50.900Z,101145.66
2022-10-23T05:48:30.010Z,101139.13
2022-10-23T05:51:11.010Z,101141.19
2022-10-23T05:53:40.349Z,101151.44
2022-10-23T05:56:09.821Z,101152.69
2022-10-23T05:58:36.977Z,101163.34
2022-10-23T06:01:13.685Z,101168.69
2022-10-23T06:03:40.987Z,101159.44
2022-10-23T06:06:08.471Z,101154.31
2022-10-23T06:08:36.137Z,101160.06
2022-10-23T06:11:15.223Z,101158.81
2022-10-23T06:16:28.958Z,101154.53
2022-10-23T06:18:57.486Z,101166.41
2022-10-23T06:21:24.871Z,101167.03
2022-10-23T06:23:52.245Z,101170.53
2022-10-23T06:26:20.307Z,101182.63
2022-10-23T06:28:47.388Z,101185.50
2022-10-23T06:31:16.619Z,101181.00
2022-10-23T06:33:43.646Z,101180.38
2022-10-23T06:36:10.958Z,101181.19
2022-10-23T06:38:40.888Z,101189.81
2022-10-23T06:41:21.601Z,101188.41
2022-10-23T06:43:51.115Z,101186.31
2022-10-23T06:46:19.306Z,101190.41
2022-10-23T06:48:46.848Z,101179.75
2022-10-23T06:51:17.257Z,101170.13
2022-10-23T06:53:46.030Z,101179.78
2022-10-23T06:56:15.758Z,101178.94
2022-10-23T06:58:42.899Z,101178.75
2022-10-23T07:01:13.199Z,101181.19
2022-10-23T07:03:40.398Z,101185.50
2022-10-23T07:06:10.283Z,101185.13
2022-10-23T07:08:38.333Z,101181.41
2022-10-23T07:11:10.806Z,101175.84
2022-10-23T07:13:39.334Z,101176.66
2022-10-23T07:16:19.311Z,101179.53
2022-10-23T07:18:48.454Z,101191.25
2022-10-23T07:21:15.951Z,101191.25
2022-10-23T07:23:43.016Z,101184.28
2022-10-23T07:26:17.766Z,101189.81
2022-10-23T07:28:48.121Z,101194.09
2022-10-23T07:31:16.239Z,101197.00
2022-10-23T07:33:43.395Z,101199.44
2022-10-23T07:36:10.777Z,101201.50
2022-10-23T07:38:37.885Z,101195.97
2022-10-23T07:41:08.875Z,101194.34
2022-10-23T07:43:39.385Z,101187.53
2022-10-23T07:46:08.489Z,101179.34
2022-10-23T07:48:37.900Z,101179.31
2022-10-23T07:51:14.896Z,101188.28
2022-10-23T07:53:42.973Z,101196.53
2022-10-23T07:56:29.980Z,101192.00
2022-10-23T07:58:59.990Z,101192.88
2022-10-23T08:01:34.717Z,101193.91
2022-10-23T08:04:01.842Z,101189.09
2022-10-23T08:06:29.443Z,101195.78
2022-10-23T08:08:56.491Z,101192.16
2022-10-23T08:11:28.042Z,101195.56
2022-10-23T08:13:57.078Z,101196.19
2022-10-23T08:16:28.204Z,101191.31
2022-10-23T08:18:55.248Z,101190.03
2022-10-23T08:21:22.299Z,101191.19
2022-10-23T08:23:49.358Z,101199.72
2022-10-23T08:26:16.537Z,101204.03
2022-10-23T08:28:43.618Z,101193.34
2022-10-23T08:31:19.250Z,101195.94
2022-10-23T08:33:46.941Z,101196.19
2022-10-23T08:36:25.689Z,101198.53
2022-10-23T08:38:55.235Z,101199.03
2022-10-23T08:41:32.694Z,101196.00
2022-10-23T08:44:31.553Z,101204.28
2022-10-23T08:47:12.601Z,101211.13
2022-10-23T08:49:44.365Z,101206.44
2022-10-23T08:52:36.727Z,101214.81
2022-10-23T08:55:45.085Z,101219.53
2022-10-23T08:58:42.717Z,101219.22
2022-10-23T09:01:46.477Z,101231.75
2022-10-23T09:04:15.357Z,101246.47
2022-10-23T09:06:48.089Z,101240.94
2022-10-23T09:10:12.202Z,101241.28
2022-10-23T09:12:39.895Z,101244.56
2022-10-23T09:15:35.236Z,101239.56
2022-10-23T09:18:17.409Z,101241.16
2022-10-23T09:20:47.639Z,101243.44
2022-10-23T09:23:23.332Z,101245.50
2022-10-23T09:26:01.995Z,101247.56
2022-10-23T09:28:36.308Z,101250.63
2022-10-23T09:31:12.546Z,101247.66
2022-10-23T09:33:43.509Z,101247.66
2022-10-23T09:36:13.942Z,101249.09
2022-10-23T09:38:46.683Z,101249.69
2022-10-23T09:41:24.677Z,101254.47
2022-10-23T09:44:21.154Z,101249.72
2022-10-23T09:46:57.329Z,101250.47
2022-10-23T09:49:30.716Z,101242.94
2022-10-23T09:52:03.760Z,101247.63
2022-10-23T09:54:39.808Z,101244.28
2022-10-23T09:57:22.031Z,101245.84
2022-10-23T09:59:56.550Z,101254.19
2022-10-23T10:02:37.549Z,101248.22
2022-10-23T10:05:34.063Z,101250.16
2022-10-23T10:08:06.118Z,101245.66
2022-10-23T10:10:37.238Z,101238.81
2022-10-23T10:13:39.598Z,101239.81
2022-10-23T10:16:07.770Z,101252.78
2022-10-23T10:19:06.119Z,101248.88
2022-10-23T10:21:54.100Z,101248.81
2022-10-23T10:24:55.901Z,101253.06
2022-10-23T10:28:02.388Z,101244.50
2022-10-23T10:31:19.607Z,101248.25
2022-10-23T10:34:37.589Z,101254.94
2022-10-23T10:37:56.730Z,101259.84
2022-10-23T10:40:51.865Z,101250.38
2022-10-23T10:44:01.681Z,101252.41
2022-10-23T10:47:03.385Z,101246.69
2022-10-23T10:49:42.898Z,101244.56
2022-10-23T10:52:57.331Z,101243.44
2022-10-23T10:55:41.401Z,101244.41
2022-10-23T10:59:07.063Z,101238.94
2022-10-23T11:02:09.936Z,101227.31
2022-10-23T11:04:51.233Z,101232.91
2022-10-23T11:07:30.881Z,101234.50
2022-10-23T11:10:00.371Z,101235.47
2022-10-23T11:12:28.321Z,101234.09
2022-10-23T11:14:56.632Z,101242.47
2022-10-23T11:17:39.240Z,101227.81
2022-10-23T11:20:09.572Z,101238.97
2022-10-23T11:23:05.512Z,101238.78
2022-10-23T11:25:59.984Z,101240.25
2022-10-23T11:28:32.890Z,101232.72
2022-10-23T11:32:00.312Z,101230.72
2022-10-23T11:34:39.731Z,101223.19
2022-10-23T11:37:09.099Z,101225.38
2022-10-23T11:39:40.276Z,101225.13
2022-10-23T11:42:07.225Z,101222.31
2022-10-23T11:44:50.489Z,101219.84
2022-10-23T11:47:40.581Z,101223.19
2022-10-23T11:50:49.844Z,101213.00
2022-10-23T11:53:45.603Z,101222.44
2022-10-23T11:56:12.558Z,101218.16
2022-10-23T11:58:50.720Z,101215.22
2022-10-23T12:01:53.159Z,101212.84
2022-10-23T12:04:39.520Z,101213.41
2022-10-23T12:07:25.622Z,101207.56
2022-10-23T12:10:00.781Z,101203.25
2022-10-23T12:12:43.247Z,101197.72
2022-10-23T12:15:15.803Z,101197.94
2022-10-23T12:17:44.278Z,101207.84
2022-10-23T12:20:11.571Z,101205.34
2022-10-23T12:23:12.822Z,101209.19
2022-10-23T12:26:12.800Z,101200.31
2022-10-23T12:29:11.244Z,101201.38
2022-10-23T12:31:55.147Z,101201.03
2022-10-23T12:34:43.980Z,101204.44
2022-10-23T12:37:56.005Z,101207.97
2022-10-23T12:40:29.805Z,101204.88
2022-10-23T12:43:00.243Z,101207.09
2022-10-23T12:45:40.669Z,101201.72
2022-10-23T12:48:19.958Z,101201.84
2022-10-23T12:50:53.113Z,101205.00
2022-10-23T12:53:24.394Z,101201.47
2022-10-23T12:56:05.164Z,101196.69
2022-10-23T12:58:35.213Z,101190.63
2022-10-23T13:01:06.096Z,101195.63
2022-10-23T13:03:34.338Z,101183.94
2022-10-23T13:06:03.171Z,101189.41
2022-10-23T13:08:45.994Z,101184.34
2022-10-23T13:11:18.743Z,101183.25
2022-10-23T13:13:46.149Z,101185.00
2022-10-23T13:16:22.572Z,101187.81
2022-10-23T13:18:50.182Z,101192.94
2022-10-23T13:21:28.787Z,101186.88
2022-10-23T13:23:56.448Z,101183.63
2022-10-23T13:26:42.794Z,101175.31
2022-10-23T13:29:33.696Z,101173.41
2022-10-23T13:32:26.742Z,101171.44
2022-10-23T13:35:04.049Z,101170.28
2022-10-23T13:37:40.677Z,101165.72
2022-10-23T13:40:24.997Z,101165.50
2022-10-23T13:42:55.167Z,101171.44
2022-10-23T13:45:25.782Z,101178.44
2022-10-23T13:47:53.443Z,101178.00
2022-10-23T13:50:23.067Z,101174.28
2022-10-23T13:52:54.580Z,101172.34
2022-10-23T13:55:28.330Z,101169.31
2022-10-23T13:58:04.554Z,101163.91
2022-10-23T14:00:31.662Z,101161.34
2022-10-23T14:03:01.013Z,101161.91
2022-10-23T14:05:28.062Z,101159.16
2022-10-23T14:07:55.124Z,101159.03
2022-10-23T14:10:25.645Z,101160.34
2022-10-23T14:12:55.320Z,101161.00
2022-10-23T14:15:22.964Z,101156.84
2022-10-23T14:17:50.159Z,101172.06
2022-10-23T14:20:19.121Z,101169.81
2022-10-23T14:22:47.199Z,101169.94
2022-10-23T14:25:14.477Z,101169.38
2022-10-23T14:27:43.829Z,101179.81
2022-10-23T14:30:11.646Z,101176.00
2022-10-23T14:32:41.113Z,101174.88
2022-10-23T14:35:10.933Z,101174.66
2022-10-23T14:37:40.547Z,101179.78
2022-10-23T14:40:08.565Z,101182.38
2022-10-23T14:42:35.716Z,101179.66
2022-10-23T14:45:08.561Z,101180.03
2022-10-23T14:47:35.787Z,101182.72
2022-10-23T14:50:03.160Z,101177.00
2022-10-23T14:52:30.376Z,101183.66
2022-10-23T14:54:57.541Z,101184.22
2022-10-23T14:57:24.769Z,101178.91
2022-10-23T14:59:51.847Z,101169.31
2022-10-23T15:02:19.076Z,101158.97
2022-10-23T15:04:46.173Z,101166.28
2022-10-23T15:07:13.261Z,101156.22
2022-10-23T15:09:40.348Z,101155.66
2022-10-23T15:12:07.962Z,101154.28
2022-10-23T15:14:35.493Z,101150.72
2022-10-23T15:17:03.037Z,101159.66
2022-10-23T15:19:30.266Z,101158.69
2022-10-23T15:21:58.982Z,101153.34
2022-10-23T15:24:26.787Z,101158.25
2022-10-23T15:26:53.923Z,101147.81
2022-10-23T15:29:21.293Z,101159.59
2022-10-23T15:31:59.485Z,101157.25
2022-10-23T15:34:29.431Z,101153.97
2022-10-23T15:36:59.714Z,101162.59
2022-10-23T15:39:33.877Z,101159.53
2022-10-23T15:42:02.428Z,101164.06
2022-10-23T15:44:31.891Z,101162.66
2022-10-23T15:47:01.891Z,101157.53
2022-10-23T15:49:29.672Z,101164.06
2022-10-23T15:51:57.446Z,101159.53
2022-10-23T15:54:27.012Z,101161.97
2022-10-23T15:56:59.101Z,101166.59
2022-10-23T15:59:26.538Z,101159.84
2022-10-23T16:01:54.099Z,101158.78
2022-10-23T16:04:21.531Z,101155.28
2022-10-23T16:06:49.363Z,101161.22
2022-10-23T16:09:17.139Z,101148.91
2022-10-23T16:11:44.789Z,101145.91
2022-10-23T16:14:17.477Z,101148.97
2022-10-23T16:16:44.958Z,101144.88
2022-10-23T16:19:14.784Z,101146.94
2022-10-23T16:21:42.173Z,101145.28
2022-10-23T16:24:10.012Z,101155.13
2022-10-23T16:26:38.233Z,101146.72
2022-10-23T16:31:42.119Z,101151.03
2022-10-23T16:34:10.411Z,101152.28
2022-10-23T16:36:40.607Z,101151.03
2022-10-23T16:39:16.122Z,101152.06
2022-10-23T16:41:43.173Z,101156.34
2022-10-23T16:44:10.223Z,101147.34
2022-10-23T16:46:38.970Z,101147.13
2022-10-23T16:49:08.166Z,101144.25
2022-10-23T16:51:35.626Z,101145.47
2022-10-23T16:54:05.006Z,101148.34
2022-10-23T16:56:32.274Z,101149.78
2022-10-23T16:59:02.398Z,101151.84
2022-10-23T17:01:31.680Z,101158.81
2022-10-23T17:03:59.469Z,101165.81
2022-10-23T17:06:32.873Z,101178.31
2022-10-23T17:09:01.971Z,101179.34
2022-10-23T17:11:37.337Z,101183.06
2022-10-23T17:14:15.438Z,101178.72
2022-10-23T17:16:47.443Z,101185.09
2022-10-23T17:19:33.052Z,101177.69
2022-10-23T17:22:10.661Z,101185.41
2022-10-23T17:24:40.156Z,101180.09
2022-10-23T17:27:07.365Z,101184.88
2022-10-23T17:29:35.225Z,101190.72
2022-10-23T17:32:02.779Z,101184.03
2022-10-23T17:34:30.126Z,101178.72
2022-10-23T17:37:02.238Z,101168.97
2022-10-23T17:39:30.209Z,101172.31
2022-10-23T17:42:00.150Z,101159.97
2022-10-23T17:44:29.953Z,101177.72
2022-10-23T17:46:57.112Z,101175.50
2022-10-23T17:49:25.192Z,101167.13
2022-10-23T17:51:55.970Z,101167.34
2022-10-23T17:54:24.812Z,101164.88
2022-10-23T17:56:51.887Z,101163.03
2022-10-23T17:59:19.786Z,101152.97
2022-10-23T18:01:48.713Z,101159.50
2022-10-23T18:04:19.357Z,101158.72
2022-10-23T18:06:53.199Z,101166.84
2022-10-23T18:09:22.741Z,101156.44
2022-10-23T18:11:52.873Z,101154.94
2022-10-23T18:14:21.523Z,101151.00
2022-10-23T18:16:52.554Z,101153.03
2022-10-23T18:19:20.073Z,101152.00
2022-10-23T18:21:48.193Z,101143.38
2022-10-23T18:24:16.182Z,101147.00
2022-10-23T18:26:43.610Z,101132.38
2022-10-23T18:29:14.133Z,101139.72
2022-10-23T18:31:41.823Z,101143.25
2022-10-23T18:34:22.200Z,101137.31
2022-10-23T18:36:51.706Z,101137.28
2022-10-23T18:39:22.668Z,101134.81
2022-10-23T18:41:55.024Z,101120.88
2022-10-23T18:44:23.216Z,101115.56
2022-10-23T18:46:51.329Z,101119.59
2022-10-23T18:49:22.508Z,101128.44
2022-10-23T18:51:50.629Z,101122.66
2022-10-23T18:54:19.744Z,101124.28
2022-10-23T18:56:47.913Z,101120.25
2022-10-23T18:59:20.153Z,101121.97
2022-10-23T19:01:47.740Z,101114.19
2022-10-23T19:04:17.788Z,101112.50
2022-10-23T19:06:46.838Z,101097.34
2022-10-23T19:09:14.808Z,101097.34
2022-10-23T19:11:43.480Z,101100.25
2022-10-23T19:14:10.735Z,101094.13
2022-10-23T19:17:04.618Z,101088.53
2022-10-23T19:19:48.682Z,101079.06
2022-10-23T19:22:17.723Z,101069.81
2022-10-23T19:24:51.160Z,101071.69
2022-10-23T19:27:19.426Z,101063.31
2022-10-23T19:29:50.381Z,101067.97
2022-10-23T19:32:17.814Z,101062.91
2022-10-23T19:34:45.488Z,101066.91
2022-10-23T19:39:45.617Z,101063.06
2022-10-23T19:42:14.821Z,101058.59
2022-10-23T19:44:41.902Z,101060.56
2022-10-23T19:47:09.048Z,101057.63
2022-10-23T19:49:36.132Z,101064.34
2022-10-23T19:52:03.241Z,101051.81
2022-10-23T19:54:31.415Z,101060.81
2022-10-23T19:56:58.528Z,101054.56
2022-10-23T19:59:25.601Z,101056.22
2022-10-23T20:01:52.800Z,101046.63
2022-10-23T20:04:20.109Z,101046.66
2022-10-23T20:06:49.675Z,101049.41
2022-10-23T20:09:17.059Z,101051.97
2022-10-23T20:11:45.321Z,101049.31
2022-10-23T20:14:13.530Z,101053.72
2022-10-23T20:16:42.569Z,101053.34
2022-10-23T20:19:15.206Z,101039.31
2022-10-23T20:21:46.239Z,101051.56
2022-10-23T20:24:16.425Z,101054.31
2022-10-23T20:26:46.384Z,101051.56
2022-10-23T20:29:14.157Z,101054.66
2022-10-23T20:31:43.797Z,101049.34
2022-10-23T20:34:12.382Z,101052.75
2022-10-23T20:36:47.000Z,101047.97
2022-10-23T20:39:26.940Z,101044.78
2022-10-23T20:41:57.593Z,101049.88
2022-10-23T20:44:29.507Z,101047.09
2022-10-23T20:46:57.010Z,101038.69
2022-10-23T20:49:24.641Z,101027.94
2022-10-23T20:51:56.435Z,101028.66
2022-10-23T20:54:28.922Z,101032.28
2022-10-23T20:56:58.988Z,101026.88
2022-10-23T20:59:26.545Z,101027.72
2022-10-23T21:01:55.509Z,101028.56
2022-10-23T21:04:27.545Z,101029.25
2022-10-23T21:07:09.343Z,101035.88
2022-10-23T21:09:38.292Z,101036.41
2022-10-23T21:12:06.759Z,101036.22
2022-10-23T21:14:35.101Z,101035.63
2022-10-23T21:17:04.928Z,101022.75
2022-10-23T21:19:32.228Z,101027.19
2022-10-23T21:22:00.242Z,101023.25
2022-10-23T21:24:27.489Z,101028.13
2022-10-23T21:26:54.637Z,101031.69
2022-10-23T21:29:22.084Z,101022.78
2022-10-23T21:31:58.595Z,101013.88
2022-10-23T21:34:26.936Z,101018.31
2022-10-23T21:37:11.874Z,101016.81
2022-10-23T21:39:40.208Z,101032.19
2022-10-23T21:42:07.728Z,101026.75
2022-10-23T21:44:35.160Z,101019.44
2022-10-23T21:47:02.484Z,101027.69
2022-10-23T21:49:32.708Z,101024.78
2022-10-23T21:51:59.820Z,101023.47
2022-10-23T21:54:26.970Z,101009.78
2022-10-23T21:56:54.433Z,101010.19
2022-10-23T21:59:29.081Z,101001.28
2022-10-23T22:01:59.463Z,100987.94
2022-10-23T22:04:26.834Z,100983.22
2022-10-23T22:06:54.148Z,100980.16
2022-10-23T22:09:22.187Z,100987.50
2022-10-23T22:11:51.370Z,100981.63
2022-10-23T22:14:22.172Z,100990.72
2022-10-23T22:16:55.480Z,100994.81
2022-10-23T22:19:23.623Z,100985.25
2022-10-23T22:21:51.888Z,100980.72
2022-10-23T22:24:19.467Z,100981.44
2022-10-23T22:26:51.655Z,100987.19
2022-10-23T22:29:25.042Z,100973.97
2022-10-23T22:31:52.820Z,100983.59
2022-10-23T22:34:48.386Z,100983.53
2022-10-23T22:37:14.925Z,100982.19
2022-10-23T22:39:44.470Z,100976.44
2022-10-23T22:42:11.958Z,100980.47
2022-10-23T22:44:39.157Z,100976.41
2022-10-23T22:47:08.740Z,100988.53
2022-10-23T22:49:35.986Z,100991.66
2022-10-23T22:52:03.189Z,100993.38
2022-10-23T22:54:33.454Z,100983.97
2022-10-23T22:57:00.636Z,100988.47
2022-10-23T22:59:27.802Z,100977.50
2022-10-23T23:01:55.314Z,100984.56
2022-10-23T23:04:38.890Z,100993.53
2022-10-23T23:07:09.855Z,100987.03
2022-10-23T23:09:40.358Z,100992.34
2022-10-23T23:12:10.483Z,100978.81
2022-10-23T23:14:41.173Z,100970.97
2022-10-23T23:17:09.440Z,100964.72
2022-10-23T23:19:36.862Z,100957.97
2022-10-23T23:22:04.057Z,100960.78
2022-10-23T23:24:32.209Z,100959.34
2022-10-23T23:26:59.299Z,100957.00
2022-10-23T23:29:27.071Z,100960.63
2022-10-23T23:31:54.213Z,100956.09
2022-10-23T23:34:21.424Z,100958.72
2022-10-23T23:36:48.614Z,100958.56
2022-10-23T23:39:15.806Z,100946.78
2022-10-23T23:41:45.275Z,100945.38
2022-10-23T23:44:12.394Z,100944.19
2022-10-23T23:46:39.603Z,100942.88
2022-10-23T23:49:06.805Z,100949.94
2022-10-23T23:51:33.875Z,100947.91
2022-10-23T23:54:03.615Z,100956.31
2022-10-23T23:56:32.030Z,100941.88
2022-10-23T23:58:59.105Z,100942.84
